sensor_id;sensor_type;location;lat;lon;timestamp;pressure;altitude;pressure_sealevel;temperature;humidity
39949;BME280;29070;48.102;-1.652;2023-11-21T00:03:59;101369.28;;;12.17;84.73
39949;BME280;29070;48.102;-1.652;2023-11-21T00:09:00;101364.22;;;12.15;84.63
39949;BME280;29070;48.102;-1.652;2023-11-21T00:14:01;101367.66;;;12.16;84.74
39949;BME280;29070;48.102;-1.652;2023-11-21T00:19:01;101372.88;;;12.09;84.85
39949;BME280;29070;48.102;-1.652;2023-11-21T00:24:01;101372.88;;;12.09;84.84
39949;BME280;29070;48.102;-1.652;2023-11-21T00:29:02;101365.00;;;12.09;84.90
39949;BME280;29070;48.102;-1.652;2023-11-21T00:34:03;101367.19;;;12.06;84.87
39949;BME280;29070;48.102;-1.652;2023-11-21T00:50:53;101380.72;;;12.02;84.92
39949;BME280;29070;48.102;-1.652;2023-11-21T00:55:53;101385.16;;;12.02;85.03
39949;BME280;29070;48.102;-1.652;2023-11-21T01:00:57;101396.84;;;11.99;84.93
39949;BME280;29070;48.102;-1.652;2023-11-21T01:05:58;101388.34;;;11.97;85.31
39949;BME280;29070;48.102;-1.652;2023-11-21T01:10:59;101394.81;;;11.95;84.97
39949;BME280;29070;48.102;-1.652;2023-11-21T01:15:59;101394.88;;;11.87;84.79
39949;BME280;29070;48.102;-1.652;2023-11-21T01:21:00;101396.72;;;11.86;84.90
39949;BME280;29070;48.102;-1.652;2023-11-21T01:26:00;101399.53;;;11.85;84.99
39949;BME280;29070;48.102;-1.652;2023-11-21T01:31:00;101402.97;;;11.85;84.95
39949;BME280;29070;48.102;-1.652;2023-11-21T01:36:01;101411.66;;;11.86;84.93
39949;BME280;29070;48.102;-1.652;2023-11-21T01:41:02;101421.94;;;11.80;84.91
39949;BME280;29070;48.102;-1.652;2023-11-21T01:46:02;101416.03;;;11.78;84.78
39949;BME280;29070;48.102;-1.652;2023-11-21T01:51:03;101419.84;;;11.76;84.85
39949;BME280;29070;48.102;-1.652;2023-11-21T01:56:03;101429.75;;;11.74;84.73
39949;BME280;29070;48.102;-1.652;2023-11-21T02:01:05;101434.19;;;11.73;84.78
39949;BME280;29070;48.102;-1.652;2023-11-21T02:06:05;101446.06;;;11.69;84.89
39949;BME280;29070;48.102;-1.652;2023-11-21T02:11:07;101445.44;;;11.67;84.76
39949;BME280;29070;48.102;-1.652;2023-11-21T02:16:07;101436.66;;;11.60;84.75
39949;BME280;29070;48.102;-1.652;2023-11-21T02:21:09;101448.19;;;11.59;84.73
39949;BME280;29070;48.102;-1.652;2023-11-21T02:26:10;101451.19;;;11.56;84.75
39949;BME280;29070;48.102;-1.652;2023-11-21T02:31:10;101446.28;;;11.53;84.62
39949;BME280;29070;48.102;-1.652;2023-11-21T02:36:12;101454.69;;;11.48;84.68
39949;BME280;29070;48.102;-1.652;2023-11-21T02:41:12;101443.94;;;11.43;84.61
39949;BME280;29070;48.102;-1.652;2023-11-21T02:46:13;101456.88;;;11.44;84.53
39949;BME280;29070;48.102;-1.652;2023-11-21T02:51:13;101456.44;;;11.41;84.76
39949;BME280;29070;48.102;-1.652;2023-11-21T02:56:15;101460.69;;;11.42;84.70
39949;BME280;29070;48.102;-1.652;2023-11-21T03:01:16;101461.91;;;11.39;84.58
39949;BME280;29070;48.102;-1.652;2023-11-21T03:06:18;101454.81;;;11.40;84.65
39949;BME280;29070;48.102;-1.652;2023-11-21T03:11:18;101455.81;;;11.39;84.68
39949;BME280;29070;48.102;-1.652;2023-11-21T03:16:19;101455.97;;;11.37;84.70
39949;BME280;29070;48.102;-1.652;2023-11-21T03:21:20;101452.72;;;11.35;84.71
39949;BME280;29070;48.102;-1.652;2023-11-21T03:26:20;101467.50;;;11.36;84.68
39949;BME280;29070;48.102;-1.652;2023-11-21T03:31:20;101475.75;;;11.33;84.81
39949;BME280;29070;48.102;-1.652;2023-11-21T03:36:21;101474.13;;;11.32;84.92
39949;BME280;29070;48.102;-1.652;2023-11-21T03:41:21;101472.50;;;11.31;84.87
39949;BME280;29070;48.102;-1.652;2023-11-21T03:46:21;101476.09;;;11.30;84.87
39949;BME280;29070;48.102;-1.652;2023-11-21T03:51:22;101479.47;;;11.24;84.67
39949;BME280;29070;48.102;-1.652;2023-11-21T03:56:22;101485.06;;;11.21;84.81
39949;BME280;29070;48.102;-1.652;2023-11-21T04:01:23;101485.69;;;11.23;84.75
39949;BME280;29070;48.102;-1.652;2023-11-21T04:06:24;101503.13;;;11.24;84.79
39949;BME280;29070;48.102;-1.652;2023-11-21T04:11:24;101494.88;;;11.27;84.80
39949;BME280;29070;48.102;-1.652;2023-11-21T04:16:24;101498.13;;;11.29;84.80
39949;BME280;29070;48.102;-1.652;2023-11-21T04:21:25;101492.25;;;11.27;84.89
39949;BME280;29070;48.102;-1.652;2023-11-21T04:26:25;101507.56;;;11.23;84.83
39949;BME280;29070;48.102;-1.652;2023-11-21T04:31:25;101509.72;;;11.20;84.79
39949;BME280;29070;48.102;-1.652;2023-11-21T04:36:26;101502.56;;;11.14;84.60
39949;BME280;29070;48.102;-1.652;2023-11-21T04:41:26;101516.53;;;11.14;84.73
39949;BME280;29070;48.102;-1.652;2023-11-21T04:46:27;101518.50;;;11.12;84.93
39949;BME280;29070;48.102;-1.652;2023-11-21T04:51:27;101527.84;;;11.15;84.64
39949;BME280;29070;48.102;-1.652;2023-11-21T04:56:27;101521.56;;;11.16;84.49
39949;BME280;29070;48.102;-1.652;2023-11-21T05:01:28;101531.00;;;11.10;84.88
39949;BME280;29070;48.102;-1.652;2023-11-21T05:06:28;101534.47;;;11.11;84.84
39949;BME280;29070;48.102;-1.652;2023-11-21T05:11:28;101540.53;;;11.11;84.95
39949;BME280;29070;48.102;-1.652;2023-11-21T05:16:32;101543.31;;;11.10;84.97
39949;BME280;29070;48.102;-1.652;2023-11-21T05:21:32;101549.38;;;11.10;84.86
39949;BME280;29070;48.102;-1.652;2023-11-21T05:26:32;101564.50;;;11.08;84.99
39949;BME280;29070;48.102;-1.652;2023-11-21T05:31:33;101567.47;;;11.05;84.89
39949;BME280;29070;48.102;-1.652;2023-11-21T05:36:33;101569.81;;;11.00;84.86
39949;BME280;29070;48.102;-1.652;2023-11-21T05:41:33;101576.38;;;11.04;85.04
39949;BME280;29070;48.102;-1.652;2023-11-21T05:46:34;101579.81;;;11.04;85.01
39949;BME280;29070;48.102;-1.652;2023-11-21T05:51:34;101571.59;;;11.07;85.02
39949;BME280;29070;48.102;-1.652;2023-11-21T05:56:35;101574.22;;;11.07;85.04
39949;BME280;29070;48.102;-1.652;2023-11-21T06:01:35;101582.91;;;11.08;85.16
39949;BME280;29070;48.102;-1.652;2023-11-21T06:06:38;101584.25;;;11.04;85.32
39949;BME280;29070;48.102;-1.652;2023-11-21T06:11:39;101589.41;;;10.97;85.25
39949;BME280;29070;48.102;-1.652;2023-11-21T06:16:39;101580.59;;;10.90;85.07
39949;BME280;29070;48.102;-1.652;2023-11-21T06:21:40;101589.19;;;10.84;85.00
39949;BME280;29070;48.102;-1.652;2023-11-21T06:26:41;101599.72;;;10.76;85.00
39949;BME280;29070;48.102;-1.652;2023-11-21T06:31:41;101609.59;;;10.74;84.85
39949;BME280;29070;48.102;-1.652;2023-11-21T06:36:41;101614.72;;;10.67;84.93
39949;BME280;29070;48.102;-1.652;2023-11-21T06:41:42;101611.75;;;10.70;85.15
39949;BME280;29070;48.102;-1.652;2023-11-21T06:46:43;101610.94;;;10.70;85.00
39949;BME280;29070;48.102;-1.652;2023-11-21T06:51:43;101618.50;;;10.64;85.20
39949;BME280;29070;48.102;-1.652;2023-11-21T06:56:43;101633.63;;;10.62;85.24
39949;BME280;29070;48.102;-1.652;2023-11-21T07:01:43;101638.34;;;10.67;85.17
39949;BME280;29070;48.102;-1.652;2023-11-21T07:06:44;101640.16;;;10.66;85.27
39949;BME280;29070;48.102;-1.652;2023-11-21T07:11:44;101651.53;;;10.59;85.10
39949;BME280;29070;48.102;-1.652;2023-11-21T07:16:46;101659.09;;;10.54;85.40
39949;BME280;29070;48.102;-1.652;2023-11-21T07:21:46;101672.31;;;10.60;85.34
39949;BME280;29070;48.102;-1.652;2023-11-21T07:26:47;101688.75;;;10.62;85.43
39949;BME280;29070;48.102;-1.652;2023-11-21T07:31:48;101689.22;;;10.66;85.38
39949;BME280;29070;48.102;-1.652;2023-11-21T07:36:48;101700.00;;;10.71;85.72
39949;BME280;29070;48.102;-1.652;2023-11-21T07:41:48;101703.47;;;10.72;85.57
39949;BME280;29070;48.102;-1.652;2023-11-21T07:46:50;101713.13;;;10.79;85.58
39949;BME280;29070;48.102;-1.652;2023-11-21T07:51:50;101710.97;;;10.83;85.55
39949;BME280;29070;48.102;-1.652;2023-11-21T07:56:51;101716.19;;;10.91;85.67
39949;BME280;29070;48.102;-1.652;2023-11-21T08:01:51;101706.31;;;10.93;85.55
39949;BME280;29070;48.102;-1.652;2023-11-21T08:06:51;101710.94;;;10.91;85.65
39949;BME280;29070;48.102;-1.652;2023-11-21T08:11:51;101706.19;;;10.86;85.24
39949;BME280;29070;48.102;-1.652;2023-11-21T08:16:53;101721.13;;;10.86;85.15
39949;BME280;29070;48.102;-1.652;2023-11-21T08:21:57;101724.41;;;10.88;85.12
39949;BME280;29070;48.102;-1.652;2023-11-21T08:26:59;101732.44;;;10.86;85.26
39949;BME280;29070;48.102;-1.652;2023-11-21T08:31:59;101750.34;;;10.91;85.40
39949;BME280;29070;48.102;-1.652;2023-11-21T08:37:00;101754.88;;;10.97;85.42
39949;BME280;29070;48.102;-1.652;2023-11-21T08:42:00;101753.50;;;11.10;85.51
39949;BME280;29070;48.102;-1.652;2023-11-21T08:47:01;101764.97;;;11.17;85.67
39949;BME280;29070;48.102;-1.652;2023-11-21T08:52:01;101764.97;;;11.17;85.51
39949;BME280;29070;48.102;-1.652;2023-11-21T08:57:02;101768.56;;;11.16;85.57
39949;BME280;29070;48.102;-1.652;2023-11-21T09:02:03;101778.41;;;11.22;85.33
39949;BME280;29070;48.102;-1.652;2023-11-21T09:07:03;101771.31;;;11.31;85.36
39949;BME280;29070;48.102;-1.652;2023-11-21T09:12:04;101774.47;;;11.49;85.41
39949;BME280;29070;48.102;-1.652;2023-11-21T09:17:05;101784.38;;;11.62;85.21
39949;BME280;29070;48.102;-1.652;2023-11-21T09:22:10;101787.44;;;11.74;84.91
39949;BME280;29070;48.102;-1.652;2023-11-21T09:27:11;101791.63;;;11.83;84.95
39949;BME280;29070;48.102;-1.652;2023-11-21T09:32:11;101798.00;;;11.89;84.87
39949;BME280;29070;48.102;-1.652;2023-11-21T09:37:14;101800.91;;;12.02;84.88
39949;BME280;29070;48.102;-1.652;2023-11-21T09:42:23;101810.53;;;12.10;84.96
39949;BME280;29070;48.102;-1.652;2023-11-21T09:47:25;101816.59;;;12.10;84.92
39949;BME280;29070;48.102;-1.652;2023-11-21T09:52:27;101817.00;;;12.22;84.71
39949;BME280;29070;48.102;-1.652;2023-11-21T09:57:28;101826.44;;;12.31;84.68
39949;BME280;29070;48.102;-1.652;2023-11-21T10:02:29;101847.81;;;12.36;84.58
39949;BME280;29070;48.102;-1.652;2023-11-21T10:07:31;101851.81;;;12.47;84.55
39949;BME280;29070;48.102;-1.652;2023-11-21T10:12:33;101856.38;;;12.68;84.59
39949;BME280;29070;48.102;-1.652;2023-11-21T10:17:36;101865.66;;;12.79;84.32
39949;BME280;29070;48.102;-1.652;2023-11-21T10:22:43;101874.34;;;12.94;84.27
39949;BME280;29070;48.102;-1.652;2023-11-21T10:27:47;101878.72;;;13.17;84.06
39949;BME280;29070;48.102;-1.652;2023-11-21T10:32:47;101894.34;;;13.04;83.77
39949;BME280;29070;48.102;-1.652;2023-11-21T10:37:59;101885.00;;;13.01;83.95
39949;BME280;29070;48.102;-1.652;2023-11-21T10:43:06;101892.00;;;13.09;84.24
39949;BME280;29070;48.102;-1.652;2023-11-21T10:48:10;101899.00;;;13.02;83.61
39949;BME280;29070;48.102;-1.652;2023-11-21T10:53:11;101903.28;;;13.03;83.62
39949;BME280;29070;48.102;-1.652;2023-11-21T10:58:14;101905.16;;;13.09;83.85
39949;BME280;29070;48.102;-1.652;2023-11-21T11:03:15;101907.81;;;13.09;83.41
39949;BME280;29070;48.102;-1.652;2023-11-21T11:08:17;101898.91;;;13.10;83.83
39949;BME280;29070;48.102;-1.652;2023-11-21T11:13:19;101897.34;;;13.15;83.58
39949;BME280;29070;48.102;-1.652;2023-11-21T11:18:19;101902.44;;;13.17;83.30
39949;BME280;29070;48.102;-1.652;2023-11-21T11:23:41;101902.91;;;13.21;83.29
39949;BME280;29070;48.102;-1.652;2023-11-21T11:34:23;101897.72;;;13.27;82.73
39949;BME280;29070;48.102;-1.652;2023-11-21T11:39:35;101901.66;;;13.31;82.77
39949;BME280;29070;48.102;-1.652;2023-11-21T11:50:11;101894.59;;;13.53;82.43
39949;BME280;29070;48.102;-1.652;2023-11-21T11:55:18;101883.88;;;13.55;82.32
39949;BME280;29070;48.102;-1.652;2023-11-21T12:00:20;101900.59;;;13.62;82.03
39949;BME280;29070;48.102;-1.652;2023-11-21T12:05:23;101898.75;;;13.63;81.95
39949;BME280;29070;48.102;-1.652;2023-11-21T12:10:25;101894.44;;;13.77;81.64
39949;BME280;29070;48.102;-1.652;2023-11-21T12:15:26;101909.47;;;13.76;81.39
39949;BME280;29070;48.102;-1.652;2023-11-21T12:20:30;101900.94;;;13.74;81.37
39949;BME280;29070;48.102;-1.652;2023-11-21T12:25:31;101903.38;;;13.76;81.28
39949;BME280;29070;48.102;-1.652;2023-11-21T12:30:36;101913.94;;;13.76;81.16
39949;BME280;29070;48.102;-1.652;2023-11-21T12:35:38;101910.69;;;13.73;80.83
39949;BME280;29070;48.102;-1.652;2023-11-21T12:40:38;101924.94;;;13.79;80.72
39949;BME280;29070;48.102;-1.652;2023-11-21T12:45:38;101925.50;;;13.75;80.56
39949;BME280;29070;48.102;-1.652;2023-11-21T12:50:39;101931.53;;;13.68;80.46
39949;BME280;29070;48.102;-1.652;2023-11-21T12:55:39;101929.59;;;13.62;80.31
39949;BME280;29070;48.102;-1.652;2023-11-21T13:00:46;101945.53;;;13.69;80.25
39949;BME280;29070;48.102;-1.652;2023-11-21T13:05:48;101951.97;;;13.66;80.02
39949;BME280;29070;48.102;-1.652;2023-11-21T13:10:56;101953.16;;;13.64;80.02
39949;BME280;29070;48.102;-1.652;2023-11-21T13:16:00;101959.69;;;13.68;79.81
39949;BME280;29070;48.102;-1.652;2023-11-21T13:21:05;101963.81;;;13.70;79.58
39949;BME280;29070;48.102;-1.652;2023-11-21T13:26:11;101976.28;;;13.62;79.28
39949;BME280;29070;48.102;-1.652;2023-11-21T13:31:12;101986.38;;;13.58;79.13
39949;BME280;29070;48.102;-1.652;2023-11-21T13:36:26;101983.13;;;13.56;79.11
39949;BME280;29070;48.102;-1.652;2023-11-21T13:41:30;101988.28;;;13.49;78.76
39949;BME280;29070;48.102;-1.652;2023-11-21T13:46:30;101989.22;;;13.42;78.37
39949;BME280;29070;48.102;-1.652;2023-11-21T13:51:37;101996.22;;;13.34;78.54
39949;BME280;29070;48.102;-1.652;2023-11-21T13:56:50;102005.81;;;13.27;78.41
39949;BME280;29070;48.102;-1.652;2023-11-21T14:01:51;101997.34;;;13.17;78.50
39949;BME280;29070;48.102;-1.652;2023-11-21T14:07:12;102011.44;;;13.24;78.56
39949;BME280;29070;48.102;-1.652;2023-11-21T14:12:27;102003.19;;;13.27;78.57
39949;BME280;29070;48.102;-1.652;2023-11-21T14:17:28;101999.84;;;13.33;78.67
39949;BME280;29070;48.102;-1.652;2023-11-21T14:22:29;102004.53;;;13.23;78.61
39949;BME280;29070;48.102;-1.652;2023-11-21T14:27:29;102010.47;;;13.25;78.48
39949;BME280;29070;48.102;-1.652;2023-11-21T14:32:29;102007.84;;;13.25;78.46
39949;BME280;29070;48.102;-1.652;2023-11-21T14:37:31;102014.72;;;13.26;78.17
39949;BME280;29070;48.102;-1.652;2023-11-21T14:42:31;102027.28;;;13.24;78.08
39949;BME280;29070;48.102;-1.652;2023-11-21T14:47:31;102031.00;;;13.15;77.98
39949;BME280;29070;48.102;-1.652;2023-11-21T14:52:32;102034.31;;;13.09;77.53
39949;BME280;29070;48.102;-1.652;2023-11-21T14:57:33;102034.31;;;13.09;77.66
39949;BME280;29070;48.102;-1.652;2023-11-21T15:02:34;102050.53;;;13.06;77.96
39949;BME280;29070;48.102;-1.652;2023-11-21T15:07:50;102059.41;;;13.05;77.80
39949;BME280;29070;48.102;-1.652;2023-11-21T15:12:52;102075.66;;;12.93;77.55
39949;BME280;29070;48.102;-1.652;2023-11-21T15:17:52;102072.09;;;12.86;77.30
39949;BME280;29070;48.102;-1.652;2023-11-21T15:22:52;102073.41;;;12.82;77.31
39949;BME280;29070;48.102;-1.652;2023-11-21T15:27:53;102092.59;;;12.76;77.37
39949;BME280;29070;48.102;-1.652;2023-11-21T15:32:53;102085.66;;;12.75;77.36
39949;BME280;29070;48.102;-1.652;2023-11-21T15:37:54;102090.66;;;12.70;77.39
39949;BME280;29070;48.102;-1.652;2023-11-21T15:42:57;102101.00;;;12.71;77.44
39949;BME280;29070;48.102;-1.652;2023-11-21T15:47:58;102102.81;;;12.71;77.51
39949;BME280;29070;48.102;-1.652;2023-11-21T15:52:59;102110.50;;;12.57;77.57
39949;BME280;29070;48.102;-1.652;2023-11-21T15:57:59;102126.97;;;12.51;77.30
39949;BME280;29070;48.102;-1.652;2023-11-21T16:03:02;102132.94;;;12.45;77.28
39949;BME280;29070;48.102;-1.652;2023-11-21T16:08:03;102140.69;;;12.47;77.41
39949;BME280;29070;48.102;-1.652;2023-11-21T16:13:03;102159.63;;;12.42;77.44
39949;BME280;29070;48.102;-1.652;2023-11-21T16:18:03;102165.91;;;12.33;77.24
39949;BME280;29070;48.102;-1.652;2023-11-21T16:23:04;102175.63;;;12.32;77.45
39949;BME280;29070;48.102;-1.652;2023-11-21T16:28:04;102169.56;;;12.24;77.32
39949;BME280;29070;48.102;-1.652;2023-11-21T16:33:05;102182.09;;;12.22;77.50
39949;BME280;29070;48.102;-1.652;2023-11-21T16:38:06;102192.63;;;12.13;77.27
39949;BME280;29070;48.102;-1.652;2023-11-21T16:43:08;102190.00;;;12.05;77.25
39949;BME280;29070;48.102;-1.652;2023-11-21T16:48:08;102198.41;;;12.00;77.26
39949;BME280;29070;48.102;-1.652;2023-11-21T16:53:09;102201.22;;;11.99;77.22
39949;BME280;29070;48.102;-1.652;2023-11-21T16:58:10;102195.78;;;11.92;76.95
39949;BME280;29070;48.102;-1.652;2023-11-21T17:03:10;102212.38;;;11.93;77.01
39949;BME280;29070;48.102;-1.652;2023-11-21T17:08:11;102202.06;;;11.91;76.81
39949;BME280;29070;48.102;-1.652;2023-11-21T17:13:13;102205.66;;;11.90;76.61
39949;BME280;29070;48.102;-1.652;2023-11-21T17:18:14;102213.84;;;11.87;76.62
39949;BME280;29070;48.102;-1.652;2023-11-21T17:23:14;102228.00;;;11.78;76.44
39949;BME280;29070;48.102;-1.652;2023-11-21T17:28:14;102241.97;;;11.78;76.72
39949;BME280;29070;48.102;-1.652;2023-11-21T17:33:15;102267.47;;;11.78;76.60
39949;BME280;29070;48.102;-1.652;2023-11-21T17:38:15;102270.25;;;11.76;76.66
39949;BME280;29070;48.102;-1.652;2023-11-21T17:43:15;102266.16;;;11.74;76.51
39949;BME280;29070;48.102;-1.652;2023-11-21T17:48:17;102282.91;;;11.73;76.60
39949;BME280;29070;48.102;-1.652;2023-11-21T17:53:17;102302.81;;;11.75;76.48
39949;BME280;29070;48.102;-1.652;2023-11-21T17:58:18;102312.03;;;11.79;76.54
39949;BME280;29070;48.102;-1.652;2023-11-21T18:03:18;102317.28;;;11.79;76.46
39949;BME280;29070;48.102;-1.652;2023-11-21T18:08:18;102315.63;;;11.78;76.55
39949;BME280;29070;48.102;-1.652;2023-11-21T18:13:19;102334.22;;;11.77;76.58
39949;BME280;29070;48.102;-1.652;2023-11-21T18:18:19;102333.38;;;11.76;76.38
39949;BME280;29070;48.102;-1.652;2023-11-21T18:23:19;102341.63;;;11.73;76.44
39949;BME280;29070;48.102;-1.652;2023-11-21T18:28:20;102339.63;;;11.67;76.48
39949;BME280;29070;48.102;-1.652;2023-11-21T18:33:20;102343.41;;;11.64;76.81
39949;BME280;29070;48.102;-1.652;2023-11-21T18:38:20;102348.34;;;11.68;76.44
39949;BME280;29070;48.102;-1.652;2023-11-21T18:43:21;102358.03;;;11.67;76.45
39949;BME280;29070;48.102;-1.652;2023-11-21T18:48:22;102363.31;;;11.67;76.43
39949;BME280;29070;48.102;-1.652;2023-11-21T18:53:22;102376.75;;;11.64;76.33
39949;BME280;29070;48.102;-1.652;2023-11-21T18:58:22;102383.69;;;11.65;76.34
39949;BME280;29070;48.102;-1.652;2023-11-21T19:03:23;102387.63;;;11.61;76.33
39949;BME280;29070;48.102;-1.652;2023-11-21T19:08:23;102402.06;;;11.57;76.52
39949;BME280;29070;48.102;-1.652;2023-11-21T19:13:23;102414.56;;;11.55;76.21
39949;BME280;29070;48.102;-1.652;2023-11-21T19:18:24;102423.09;;;11.57;76.36
39949;BME280;29070;48.102;-1.652;2023-11-21T19:23:24;102420.13;;;11.52;76.39
39949;BME280;29070;48.102;-1.652;2023-11-21T19:28:25;102416.84;;;11.50;76.41
39949;BME280;29070;48.102;-1.652;2023-11-21T19:33:26;102418.50;;;11.51;76.59
39949;BME280;29070;48.102;-1.652;2023-11-21T19:38:26;102424.06;;;11.48;76.50
39949;BME280;29070;48.102;-1.652;2023-11-21T19:43:26;102423.75;;;11.51;76.53
39949;BME280;29070;48.102;-1.652;2023-11-21T19:48:27;102425.72;;;11.49;76.69
39949;BME280;29070;48.102;-1.652;2023-11-21T19:53:27;102428.50;;;11.47;76.57
39949;BME280;29070;48.102;-1.652;2023-11-21T19:58:28;102403.03;;;11.48;76.58
39949;BME280;29070;48.102;-1.652;2023-11-21T20:03:29;102407.47;;;11.47;76.61
39949;BME280;29070;48.102;-1.652;2023-11-21T20:08:29;102427.34;;;11.50;76.67
39949;BME280;29070;48.102;-1.652;2023-11-21T20:13:36;102431.47;;;11.52;76.62
39949;BME280;29070;48.102;-1.652;2023-11-21T20:18:36;102427.69;;;11.55;76.64
39949;BME280;29070;48.102;-1.652;2023-11-21T20:23:37;102444.13;;;11.57;76.91
39949;BME280;29070;48.102;-1.652;2023-11-21T20:28:37;102446.78;;;11.57;76.65
39949;BME280;29070;48.102;-1.652;2023-11-21T20:33:38;102449.75;;;11.54;76.64
39949;BME280;29070;48.102;-1.652;2023-11-21T20:38:39;102456.63;;;11.55;76.63
39949;BME280;29070;48.102;-1.652;2023-11-21T20:43:39;102451.38;;;11.55;76.68
39949;BME280;29070;48.102;-1.652;2023-11-21T20:48:40;102448.59;;;11.56;76.81
39949;BME280;29070;48.102;-1.652;2023-11-21T20:53:40;102462.69;;;11.55;77.00
39949;BME280;29070;48.102;-1.652;2023-11-21T20:58:40;102468.59;;;11.49;76.92
39949;BME280;29070;48.102;-1.652;2023-11-21T21:03:42;102472.06;;;11.50;77.10
39949;BME280;29070;48.102;-1.652;2023-11-21T21:08:45;102478.31;;;11.49;76.94
39949;BME280;29070;48.102;-1.652;2023-11-21T21:13:47;102479.94;;;11.50;77.16
39949;BME280;29070;48.102;-1.652;2023-11-21T21:18:47;102499.34;;;11.49;77.22
39949;BME280;29070;48.102;-1.652;2023-11-21T21:23:56;102514.28;;;11.48;77.59
39949;BME280;29070;48.102;-1.652;2023-11-21T21:28:58;102523.47;;;11.44;77.30
39949;BME280;29070;48.102;-1.652;2023-11-21T21:33:58;102517.09;;;11.47;77.43
39949;BME280;29070;48.102;-1.652;2023-11-21T21:38:58;102504.75;;;11.47;77.36
39949;BME280;29070;48.102;-1.652;2023-11-21T21:43:59;102499.97;;;11.42;77.28
39949;BME280;29070;48.102;-1.652;2023-11-21T21:49:00;102512.44;;;11.40;77.51
39949;BME280;29070;48.102;-1.652;2023-11-21T21:54:03;102508.47;;;11.36;77.60
39949;BME280;29070;48.102;-1.652;2023-11-21T21:59:07;102510.81;;;11.39;77.69
39949;BME280;29070;48.102;-1.652;2023-11-21T22:04:07;102517.03;;;11.38;77.79
39949;BME280;29070;48.102;-1.652;2023-11-21T22:09:09;102531.13;;;11.29;77.85
39949;BME280;29070;48.102;-1.652;2023-11-21T22:14:11;102522.88;;;11.24;77.99
39949;BME280;29070;48.102;-1.652;2023-11-21T22:19:11;102519.06;;;11.18;77.60
39949;BME280;29070;48.102;-1.652;2023-11-21T22:24:11;102508.31;;;11.12;78.11
39949;BME280;29070;48.102;-1.652;2023-11-21T22:29:12;102505.03;;;11.10;78.17
39949;BME280;29070;48.102;-1.652;2023-11-21T22:34:12;102516.50;;;11.09;78.29
39949;BME280;29070;48.102;-1.652;2023-11-21T22:39:13;102514.22;;;11.05;78.33
39949;BME280;29070;48.102;-1.652;2023-11-21T22:44:13;102513.06;;;11.08;78.41
39949;BME280;29070;48.102;-1.652;2023-11-21T22:49:14;102522.91;;;11.06;78.67
39949;BME280;29070;48.102;-1.652;2023-11-21T22:54:14;102540.47;;;11.05;78.82
39949;BME280;29070;48.102;-1.652;2023-11-21T22:59:14;102541.97;;;11.08;78.86
39949;BME280;29070;48.102;-1.652;2023-11-21T23:04:19;102543.78;;;11.07;79.00
39949;BME280;29070;48.102;-1.652;2023-11-21T23:09:19;102544.75;;;11.06;79.11
39949;BME280;29070;48.102;-1.652;2023-11-21T23:14:22;102553.63;;;11.05;79.29
39949;BME280;29070;48.102;-1.652;2023-11-21T23:19:22;102552.63;;;11.06;79.18
39949;BME280;29070;48.102;-1.652;2023-11-21T23:24:22;102547.06;;;11.10;79.30
39949;BME280;29070;48.102;-1.652;2023-11-21T23:29:23;102548.41;;;11.14;79.50
39949;BME280;29070;48.102;-1.652;2023-11-21T23:34:23;102548.41;;;11.14;79.51
39949;BME280;29070;48.102;-1.652;2023-11-21T23:39:24;102540.84;;;11.11;79.65
39949;BME280;29070;48.102;-1.652;2023-11-21T23:44:24;102550.88;;;11.15;79.87
39949;BME280;29070;48.102;-1.652;2023-11-21T23:49:27;102549.78;;;11.18;79.84
39949;BME280;29070;48.102;-1.652;2023-11-21T23:54:28;102542.56;;;11.20;79.87
39949;BME280;29070;48.102;-1.652;2023-11-21T23:59:28;102545.19;;;11.20;80.08
